KDZB

Horseshoe Bay Resort Airport

Horseshoe Bay, Texas, USA
METAR KDZB 192255Z AUTO 15006KT 10SM SCT095 38/15 A2984 RMK AO2 LTG DSNT N T03750145
Observed Flight Rules
Aug-19 @ 22:55 UTC (14 minutes ago) Visual Flight Rules
Wind Visibility Clouds
150° at 6 knots 10 miles
  • Scattered at 9,500' AGL
Temperatures Readings
Current 38°C / 100°F
Dewpoint 15°C / 59°F
Humidity 25%
Altimeter 29.84" Hg
Pressure 1010 hPa
Elevation 334
METAR KDZB 192255Z AUTO 15006KT 10SM SCT095 38/15 A2984 RMK AO2 LTG DSNT N T03750145
Observed Flight Rules
Aug-19 @ 22:55 UTC
(14 minutes ago)
VFR
Wind Visibility
150° at 6 knots 10 miles
Clouds
  • Scattered at 9,500' AGL
Temperature Dewpoint
38°C / 100°F 15°C / 59°F
Humidity Altimeter Pressure
25% 29.84" Hg 1010 hPa